sensor_id;sensor_type;location;lat;lon;timestamp;temperature;humidity
73438;DHT22;62744;56.802;23.964;2022-09-01T00:00:00;10.40;95.00
73438;DHT22;62744;56.802;23.964;2022-09-01T00:02:29;10.40;94.80
73438;DHT22;62744;56.802;23.964;2022-09-01T00:04:57;10.40;95.00
73438;DHT22;62744;56.802;23.964;2022-09-01T00:07:27;10.50;95.30
73438;DHT22;62744;56.802;23.964;2022-09-01T00:09:58;10.50;95.40
73438;DHT22;62744;56.802;23.964;2022-09-01T00:12:27;10.50;95.30
73438;DHT22;62744;56.802;23.964;2022-09-01T00:14:55;10.60;95.20
73438;DHT22;62744;56.802;23.964;2022-09-01T00:17:24;10.50;95.20
73438;DHT22;62744;56.802;23.964;2022-09-01T00:19:52;10.60;95.20
73438;DHT22;62744;56.802;23.964;2022-09-01T00:22:20;10.50;95.20
73438;DHT22;62744;56.802;23.964;2022-09-01T00:24:48;10.50;95.00
73438;DHT22;62744;56.802;23.964;2022-09-01T00:27:16;10.50;95.00
73438;DHT22;62744;56.802;23.964;2022-09-01T00:29:44;10.40;94.90
73438;DHT22;62744;56.802;23.964;2022-09-01T00:32:12;10.50;95.40
73438;DHT22;62744;56.802;23.964;2022-09-01T00:34:40;10.40;95.10
73438;DHT22;62744;56.802;23.964;2022-09-01T00:37:07;10.50;95.30
73438;DHT22;62744;56.802;23.964;2022-09-01T00:39:35;10.50;94.90
73438;DHT22;62744;56.802;23.964;2022-09-01T00:42:03;10.50;94.80
73438;DHT22;62744;56.802;23.964;2022-09-01T00:44:31;10.50;94.80
73438;DHT22;62744;56.802;23.964;2022-09-01T00:46:58;10.40;94.60
73438;DHT22;62744;56.802;23.964;2022-09-01T00:52:06;10.40;92.90
73438;DHT22;62744;56.802;23.964;2022-09-01T00:54:38;10.20;91.00
73438;DHT22;62744;56.802;23.964;2022-09-01T00:57:08;10.20;91.90
73438;DHT22;62744;56.802;23.964;2022-09-01T00:59:41;10.20;91.20
73438;DHT22;62744;56.802;23.964;2022-09-01T01:02:09;10.20;91.20
73438;DHT22;62744;56.802;23.964;2022-09-01T01:04:37;10.10;91.50
73438;DHT22;62744;56.802;23.964;2022-09-01T01:07:07;10.10;92.00
73438;DHT22;62744;56.802;23.964;2022-09-01T01:09:39;10.20;91.90
73438;DHT22;62744;56.802;23.964;2022-09-01T01:12:07;10.10;92.20
73438;DHT22;62744;56.802;23.964;2022-09-01T01:14:40;10.10;91.90
73438;DHT22;62744;56.802;23.964;2022-09-01T01:17:12;10.10;92.30
73438;DHT22;62744;56.802;23.964;2022-09-01T01:19:43;10.00;92.80
73438;DHT22;62744;56.802;23.964;2022-09-01T01:23:03;10.00;92.70
73438;DHT22;62744;56.802;23.964;2022-09-01T01:25:38;10.10;91.90
73438;DHT22;62744;56.802;23.964;2022-09-01T01:28:18;10.00;92.30
73438;DHT22;62744;56.802;23.964;2022-09-01T01:30:51;10.00;92.90
73438;DHT22;62744;56.802;23.964;2022-09-01T01:33:23;9.90;93.20
73438;DHT22;62744;56.802;23.964;2022-09-01T01:35:52;9.90;93.30
73438;DHT22;62744;56.802;23.964;2022-09-01T01:38:21;9.90;93.10
73438;DHT22;62744;56.802;23.964;2022-09-01T01:40:50;10.00;93.80
73438;DHT22;62744;56.802;23.964;2022-09-01T01:43:22;10.00;93.80
73438;DHT22;62744;56.802;23.964;2022-09-01T01:45:51;10.00;93.90
73438;DHT22;62744;56.802;23.964;2022-09-01T01:48:21;10.00;93.80
73438;DHT22;62744;56.802;23.964;2022-09-01T01:50:54;10.00;93.80
73438;DHT22;62744;56.802;23.964;2022-09-01T01:53:22;10.00;93.40
73438;DHT22;62744;56.802;23.964;2022-09-01T01:55:50;10.00;92.90
73438;DHT22;62744;56.802;23.964;2022-09-01T01:58:19;10.10;92.60
73438;DHT22;62744;56.802;23.964;2022-09-01T02:00:49;10.00;93.00
73438;DHT22;62744;56.802;23.964;2022-09-01T02:03:20;10.00;93.50
73438;DHT22;62744;56.802;23.964;2022-09-01T02:05:49;10.00;93.60
73438;DHT22;62744;56.802;23.964;2022-09-01T02:08:18;10.00;93.50
73438;DHT22;62744;56.802;23.964;2022-09-01T02:10:49;10.00;93.90
73438;DHT22;62744;56.802;23.964;2022-09-01T02:13:19;10.00;93.80
73438;DHT22;62744;56.802;23.964;2022-09-01T02:15:56;10.00;93.60
73438;DHT22;62744;56.802;23.964;2022-09-01T02:18:30;10.10;93.60
73438;DHT22;62744;56.802;23.964;2022-09-01T02:21:01;10.10;93.70
73438;DHT22;62744;56.802;23.964;2022-09-01T02:23:29;10.00;93.60
73438;DHT22;62744;56.802;23.964;2022-09-01T02:25:59;10.00;93.70
73438;DHT22;62744;56.802;23.964;2022-09-01T02:28:46;10.00;93.60
73438;DHT22;62744;56.802;23.964;2022-09-01T02:31:22;10.00;93.70
73438;DHT22;62744;56.802;23.964;2022-09-01T02:33:50;10.00;93.60
73438;DHT22;62744;56.802;23.964;2022-09-01T02:36:20;9.90;93.50
73438;DHT22;62744;56.802;23.964;2022-09-01T02:38:48;9.90;93.30
73438;DHT22;62744;56.802;23.964;2022-09-01T02:41:20;9.90;93.90
73438;DHT22;62744;56.802;23.964;2022-09-01T02:43:50;9.80;93.70
73438;DHT22;62744;56.802;23.964;2022-09-01T02:46:18;9.90;94.20
73438;DHT22;62744;56.802;23.964;2022-09-01T02:48:51;9.80;94.20
73438;DHT22;62744;56.802;23.964;2022-09-01T02:51:21;9.80;93.40
73438;DHT22;62744;56.802;23.964;2022-09-01T02:53:52;9.90;93.60
73438;DHT22;62744;56.802;23.964;2022-09-01T02:56:24;9.90;93.80
73438;DHT22;62744;56.802;23.964;2022-09-01T02:58:54;9.90;93.90
73438;DHT22;62744;56.802;23.964;2022-09-01T03:01:28;9.90;94.00
73438;DHT22;62744;56.802;23.964;2022-09-01T03:03:59;9.80;94.10
73438;DHT22;62744;56.802;23.964;2022-09-01T03:06:29;9.80;94.50
73438;DHT22;62744;56.802;23.964;2022-09-01T03:09:02;9.80;94.30
73438;DHT22;62744;56.802;23.964;2022-09-01T03:11:32;9.90;94.30
73438;DHT22;62744;56.802;23.964;2022-09-01T03:14:02;9.80;94.30
73438;DHT22;62744;56.802;23.964;2022-09-01T03:16:30;9.80;94.30
73438;DHT22;62744;56.802;23.964;2022-09-01T03:18:59;9.80;94.40
73438;DHT22;62744;56.802;23.964;2022-09-01T03:21:29;9.80;94.80
73438;DHT22;62744;56.802;23.964;2022-09-01T03:23:58;9.80;95.10
73438;DHT22;62744;56.802;23.964;2022-09-01T03:26:28;9.80;95.30
73438;DHT22;62744;56.802;23.964;2022-09-01T03:28:57;9.80;94.80
73438;DHT22;62744;56.802;23.964;2022-09-01T03:31:25;9.90;94.70
73438;DHT22;62744;56.802;23.964;2022-09-01T03:33:58;9.90;94.60
73438;DHT22;62744;56.802;23.964;2022-09-01T03:36:27;9.80;94.30
73438;DHT22;62744;56.802;23.964;2022-09-01T03:38:56;9.70;94.10
73438;DHT22;62744;56.802;23.964;2022-09-01T03:41:26;9.70;94.10
73438;DHT22;62744;56.802;23.964;2022-09-01T03:43:57;9.70;94.20
73438;DHT22;62744;56.802;23.964;2022-09-01T03:46:26;9.70;94.00
73438;DHT22;62744;56.802;23.964;2022-09-01T03:49:04;9.70;94.10
73438;DHT22;62744;56.802;23.964;2022-09-01T03:51:34;9.70;94.10
73438;DHT22;62744;56.802;23.964;2022-09-01T03:54:04;9.80;94.00
73438;DHT22;62744;56.802;23.964;2022-09-01T03:56:33;9.90;94.10
73438;DHT22;62744;56.802;23.964;2022-09-01T03:59:01;9.90;94.00
73438;DHT22;62744;56.802;23.964;2022-09-01T04:01:29;10.00;93.30
73438;DHT22;62744;56.802;23.964;2022-09-01T04:04:04;10.00;93.50
73438;DHT22;62744;56.802;23.964;2022-09-01T04:06:32;10.10;93.10
73438;DHT22;62744;56.802;23.964;2022-09-01T04:09:00;10.00;93.40
73438;DHT22;62744;56.802;23.964;2022-09-01T04:11:29;10.10;93.60
73438;DHT22;62744;56.802;23.964;2022-09-01T04:13:59;10.20;94.10
73438;DHT22;62744;56.802;23.964;2022-09-01T04:16:29;10.40;94.60
73438;DHT22;62744;56.802;23.964;2022-09-01T04:19:19;10.70;94.00
73438;DHT22;62744;56.802;23.964;2022-09-01T04:21:59;11.20;92.60
73438;DHT22;62744;56.802;23.964;2022-09-01T04:24:30;11.80;91.40
73438;DHT22;62744;56.802;23.964;2022-09-01T04:26:59;12.40;89.40
73438;DHT22;62744;56.802;23.964;2022-09-01T04:29:29;12.70;87.30
73438;DHT22;62744;56.802;23.964;2022-09-01T04:32:01;12.60;87.90
73438;DHT22;62744;56.802;23.964;2022-09-01T04:34:32;12.50;88.60
73438;DHT22;62744;56.802;23.964;2022-09-01T04:37:09;12.40;88.80
73438;DHT22;62744;56.802;23.964;2022-09-01T04:39:40;12.40;88.10
73438;DHT22;62744;56.802;23.964;2022-09-01T04:42:21;12.30;88.70
73438;DHT22;62744;56.802;23.964;2022-09-01T04:44:54;12.20;89.00
73438;DHT22;62744;56.802;23.964;2022-09-01T04:47:24;12.00;89.40
73438;DHT22;62744;56.802;23.964;2022-09-01T04:50:05;11.80;90.00
73438;DHT22;62744;56.802;23.964;2022-09-01T04:52:44;11.80;90.20
73438;DHT22;62744;56.802;23.964;2022-09-01T04:55:13;11.50;90.90
73438;DHT22;62744;56.802;23.964;2022-09-01T04:57:46;11.50;91.60
73438;DHT22;62744;56.802;23.964;2022-09-01T05:00:18;12.00;91.40
73438;DHT22;62744;56.802;23.964;2022-09-01T05:02:55;11.90;90.90
73438;DHT22;62744;56.802;23.964;2022-09-01T05:05:40;12.10;92.20
73438;DHT22;62744;56.802;23.964;2022-09-01T05:08:15;12.20;89.70
73438;DHT22;62744;56.802;23.964;2022-09-01T05:10:52;12.00;89.70
73438;DHT22;62744;56.802;23.964;2022-09-01T05:13:23;11.90;90.10
73438;DHT22;62744;56.802;23.964;2022-09-01T05:16:12;11.60;90.40
73438;DHT22;62744;56.802;23.964;2022-09-01T05:18:42;11.30;90.60
73438;DHT22;62744;56.802;23.964;2022-09-01T05:21:20;11.30;90.80
73438;DHT22;62744;56.802;23.964;2022-09-01T05:23:51;11.20;91.40
73438;DHT22;62744;56.802;23.964;2022-09-01T05:26:22;11.30;91.80
73438;DHT22;62744;56.802;23.964;2022-09-01T05:28:54;11.20;92.20
73438;DHT22;62744;56.802;23.964;2022-09-01T05:31:23;11.40;93.30
73438;DHT22;62744;56.802;23.964;2022-09-01T05:33:54;11.80;93.10
73438;DHT22;62744;56.802;23.964;2022-09-01T05:36:24;11.90;91.50
73438;DHT22;62744;56.802;23.964;2022-09-01T05:38:52;12.10;91.20
73438;DHT22;62744;56.802;23.964;2022-09-01T05:41:21;11.90;91.10
73438;DHT22;62744;56.802;23.964;2022-09-01T05:43:50;11.90;90.90
73438;DHT22;62744;56.802;23.964;2022-09-01T05:46:26;11.90;90.90
73438;DHT22;62744;56.802;23.964;2022-09-01T05:48:55;11.80;91.50
73438;DHT22;62744;56.802;23.964;2022-09-01T05:51:25;11.90;90.60
73438;DHT22;62744;56.802;23.964;2022-09-01T05:54:17;11.80;89.70
73438;DHT22;62744;56.802;23.964;2022-09-01T05:56:48;11.60;89.30
73438;DHT22;62744;56.802;23.964;2022-09-01T05:59:16;11.40;89.80
73438;DHT22;62744;56.802;23.964;2022-09-01T06:01:53;11.30;90.20
73438;DHT22;62744;56.802;23.964;2022-09-01T06:04:22;11.30;90.50
73438;DHT22;62744;56.802;23.964;2022-09-01T06:06:51;11.20;91.10
73438;DHT22;62744;56.802;23.964;2022-09-01T06:09:40;11.30;91.50
73438;DHT22;62744;56.802;23.964;2022-09-01T06:12:09;11.20;91.90
73438;DHT22;62744;56.802;23.964;2022-09-01T06:14:55;11.40;92.10
73438;DHT22;62744;56.802;23.964;2022-09-01T06:17:25;11.50;91.70
73438;DHT22;62744;56.802;23.964;2022-09-01T06:19:54;11.70;92.10
73438;DHT22;62744;56.802;23.964;2022-09-01T06:22:23;11.90;91.40
73438;DHT22;62744;56.802;23.964;2022-09-01T06:24:51;12.00;89.80
73438;DHT22;62744;56.802;23.964;2022-09-01T06:27:27;12.10;91.10
73438;DHT22;62744;56.802;23.964;2022-09-01T06:29:55;12.20;91.40
73438;DHT22;62744;56.802;23.964;2022-09-01T06:32:24;12.20;90.80
73438;DHT22;62744;56.802;23.964;2022-09-01T06:34:53;12.10;91.80
73438;DHT22;62744;56.802;23.964;2022-09-01T06:37:24;12.30;91.40
73438;DHT22;62744;56.802;23.964;2022-09-01T06:39:51;12.70;91.60
73438;DHT22;62744;56.802;23.964;2022-09-01T06:42:19;13.10;88.30
73438;DHT22;62744;56.802;23.964;2022-09-01T06:44:49;13.00;87.10
73438;DHT22;62744;56.802;23.964;2022-09-01T06:47:16;12.90;87.30
73438;DHT22;62744;56.802;23.964;2022-09-01T06:49:45;12.80;86.50
73438;DHT22;62744;56.802;23.964;2022-09-01T06:52:13;12.80;86.50
73438;DHT22;62744;56.802;23.964;2022-09-01T06:54:42;12.80;87.10
73438;DHT22;62744;56.802;23.964;2022-09-01T06:57:10;12.70;87.90
73438;DHT22;62744;56.802;23.964;2022-09-01T06:59:58;12.60;89.60
73438;DHT22;62744;56.802;23.964;2022-09-01T07:02:27;12.60;90.10
73438;DHT22;62744;56.802;23.964;2022-09-01T07:04:59;12.70;89.20
73438;DHT22;62744;56.802;23.964;2022-09-01T07:07:28;12.70;87.80
73438;DHT22;62744;56.802;23.964;2022-09-01T07:10:20;12.70;86.00
73438;DHT22;62744;56.802;23.964;2022-09-01T07:12:53;12.70;85.80
73438;DHT22;62744;56.802;23.964;2022-09-01T07:15:41;12.70;86.20
73438;DHT22;62744;56.802;23.964;2022-09-01T07:18:30;12.70;86.70
73438;DHT22;62744;56.802;23.964;2022-09-01T07:20:58;12.70;87.80
73438;DHT22;62744;56.802;23.964;2022-09-01T07:23:46;12.70;87.10
73438;DHT22;62744;56.802;23.964;2022-09-01T07:26:34;12.70;84.90
73438;DHT22;62744;56.802;23.964;2022-09-01T07:29:13;12.60;85.90
73438;DHT22;62744;56.802;23.964;2022-09-01T07:31:42;12.40;86.50
73438;DHT22;62744;56.802;23.964;2022-09-01T07:34:30;12.50;86.80
73438;DHT22;62744;56.802;23.964;2022-09-01T07:37:07;12.60;87.10
73438;DHT22;62744;56.802;23.964;2022-09-01T07:39:55;13.00;85.50
73438;DHT22;62744;56.802;23.964;2022-09-01T07:42:22;13.40;85.60
73438;DHT22;62744;56.802;23.964;2022-09-01T07:45:12;13.60;84.00
73438;DHT22;62744;56.802;23.964;2022-09-01T07:47:56;13.60;81.70
73438;DHT22;62744;56.802;23.964;2022-09-01T07:50:29;13.80;80.20
73438;DHT22;62744;56.802;23.964;2022-09-01T07:53:19;13.90;80.90
73438;DHT22;62744;56.802;23.964;2022-09-01T07:55:53;13.90;81.00
73438;DHT22;62744;56.802;23.964;2022-09-01T07:58:24;13.70;81.30
73438;DHT22;62744;56.802;23.964;2022-09-01T08:00:53;13.70;80.90
73438;DHT22;62744;56.802;23.964;2022-09-01T08:03:23;13.50;80.90
73438;DHT22;62744;56.802;23.964;2022-09-01T08:05:51;13.50;80.90
73438;DHT22;62744;56.802;23.964;2022-09-01T08:08:24;13.40;81.80
73438;DHT22;62744;56.802;23.964;2022-09-01T08:10:55;13.30;81.30
73438;DHT22;62744;56.802;23.964;2022-09-01T08:13:35;13.30;81.30
73438;DHT22;62744;56.802;23.964;2022-09-01T08:16:08;13.40;81.80
73438;DHT22;62744;56.802;23.964;2022-09-01T08:18:45;13.40;81.40
73438;DHT22;62744;56.802;23.964;2022-09-01T08:21:17;13.40;80.90
73438;DHT22;62744;56.802;23.964;2022-09-01T08:23:45;13.50;81.40
73438;DHT22;62744;56.802;23.964;2022-09-01T08:26:16;13.90;81.70
73438;DHT22;62744;56.802;23.964;2022-09-01T08:28:44;14.00;79.80
73438;DHT22;62744;56.802;23.964;2022-09-01T08:31:15;14.20;79.80
73438;DHT22;62744;56.802;23.964;2022-09-01T08:33:45;14.20;80.20
73438;DHT22;62744;56.802;23.964;2022-09-01T08:36:15;14.40;78.60
73438;DHT22;62744;56.802;23.964;2022-09-01T08:38:49;14.40;78.50
73438;DHT22;62744;56.802;23.964;2022-09-01T08:46:42;14.90;76.90
73438;DHT22;62744;56.802;23.964;2022-09-01T08:49:19;14.80;76.80
73438;DHT22;62744;56.802;23.964;2022-09-01T08:52:41;14.60;77.90
73438;DHT22;62744;56.802;23.964;2022-09-01T08:58:10;14.10;77.50
73438;DHT22;62744;56.802;23.964;2022-09-01T09:00:44;13.90;81.00
73438;DHT22;62744;56.802;23.964;2022-09-01T09:06:14;13.60;81.20
73438;DHT22;62744;56.802;23.964;2022-09-01T09:08:58;13.30;81.10
73438;DHT22;62744;56.802;23.964;2022-09-01T09:16:57;13.60;82.40
73438;DHT22;62744;56.802;23.964;2022-09-01T09:19:28;13.90;80.40
73438;DHT22;62744;56.802;23.964;2022-09-01T09:21:59;14.10;79.80
73438;DHT22;62744;56.802;23.964;2022-09-01T09:24:35;14.30;78.60
73438;DHT22;62744;56.802;23.964;2022-09-01T09:29:46;14.90;78.60
73438;DHT22;62744;56.802;23.964;2022-09-01T09:32:14;15.10;78.00
73438;DHT22;62744;56.802;23.964;2022-09-01T09:37:52;15.00;76.70
73438;DHT22;62744;56.802;23.964;2022-09-01T09:40:28;14.90;77.40
73438;DHT22;62744;56.802;23.964;2022-09-01T09:45:41;14.90;77.00
73438;DHT22;62744;56.802;23.964;2022-09-01T09:48:27;15.00;76.90
73438;DHT22;62744;56.802;23.964;2022-09-01T09:51:19;14.80;76.00
73438;DHT22;62744;56.802;23.964;2022-09-01T09:53:48;14.80;74.90
73438;DHT22;62744;56.802;23.964;2022-09-01T09:56:21;14.80;73.90
73438;DHT22;62744;56.802;23.964;2022-09-01T09:58:52;14.70;72.90
73438;DHT22;62744;56.802;23.964;2022-09-01T10:03:54;15.00;72.10
73438;DHT22;62744;56.802;23.964;2022-09-01T10:06:35;15.20;70.70
73438;DHT22;62744;56.802;23.964;2022-09-01T10:12:04;15.30;70.20
73438;DHT22;62744;56.802;23.964;2022-09-01T10:14:50;15.30;68.20
73438;DHT22;62744;56.802;23.964;2022-09-01T10:17:50;15.10;69.80
73438;DHT22;62744;56.802;23.964;2022-09-01T10:20:39;14.80;69.70
73438;DHT22;62744;56.802;23.964;2022-09-01T10:23:10;14.80;69.40
73438;DHT22;62744;56.802;23.964;2022-09-01T10:25:42;14.80;69.40
73438;DHT22;62744;56.802;23.964;2022-09-01T10:28:17;14.80;68.60
73438;DHT22;62744;56.802;23.964;2022-09-01T10:30:48;14.80;67.70
73438;DHT22;62744;56.802;23.964;2022-09-01T10:33:19;14.80;68.90
73438;DHT22;62744;56.802;23.964;2022-09-01T10:35:50;14.90;70.70
73438;DHT22;62744;56.802;23.964;2022-09-01T10:38:24;15.00;68.60
73438;DHT22;62744;56.802;23.964;2022-09-01T10:40:55;15.20;67.60
73438;DHT22;62744;56.802;23.964;2022-09-01T10:43:45;15.20;69.30
73438;DHT22;62744;56.802;23.964;2022-09-01T10:55:24;15.20;66.90
73438;DHT22;62744;56.802;23.964;2022-09-01T11:00:46;14.90;68.00
73438;DHT22;62744;56.802;23.964;2022-09-01T11:03:53;15.00;68.90
73438;DHT22;62744;56.802;23.964;2022-09-01T11:13:19;14.80;67.90
73438;DHT22;62744;56.802;23.964;2022-09-01T11:15:47;15.00;69.30
73438;DHT22;62744;56.802;23.964;2022-09-01T11:18:27;15.30;69.80
73438;DHT22;62744;56.802;23.964;2022-09-01T11:21:24;15.60;65.00
73438;DHT22;62744;56.802;23.964;2022-09-01T11:26:58;15.30;65.00
73438;DHT22;62744;56.802;23.964;2022-09-01T11:32:26;15.30;65.50
73438;DHT22;62744;56.802;23.964;2022-09-01T11:35:00;15.10;66.20
73438;DHT22;62744;56.802;23.964;2022-09-01T11:37:29;15.10;69.70
73438;DHT22;62744;56.802;23.964;2022-09-01T11:40:00;15.00;67.20
73438;DHT22;62744;56.802;23.964;2022-09-01T11:42:41;15.00;67.30
73438;DHT22;62744;56.802;23.964;2022-09-01T11:45:20;14.90;67.30
73438;DHT22;62744;56.802;23.964;2022-09-01T11:47:53;14.80;66.70
73438;DHT22;62744;56.802;23.964;2022-09-01T11:50:26;14.80;67.20
73438;DHT22;62744;56.802;23.964;2022-09-01T11:52:57;14.90;67.30
73438;DHT22;62744;56.802;23.964;2022-09-01T11:55:34;15.00;68.80
73438;DHT22;62744;56.802;23.964;2022-09-01T11:58:03;15.10;68.50
73438;DHT22;62744;56.802;23.964;2022-09-01T12:00:34;15.30;68.10
73438;DHT22;62744;56.802;23.964;2022-09-01T12:03:25;15.30;68.10
73438;DHT22;62744;56.802;23.964;2022-09-01T12:06:01;15.40;68.00
73438;DHT22;62744;56.802;23.964;2022-09-01T12:08:38;15.40;67.70
73438;DHT22;62744;56.802;23.964;2022-09-01T12:11:12;15.20;67.10
73438;DHT22;62744;56.802;23.964;2022-09-01T12:14:07;15.10;66.70
73438;DHT22;62744;56.802;23.964;2022-09-01T12:16:39;15.30;68.20
73438;DHT22;62744;56.802;23.964;2022-09-01T12:19:31;15.50;64.80
73438;DHT22;62744;56.802;23.964;2022-09-01T12:22:22;15.60;61.70
73438;DHT22;62744;56.802;23.964;2022-09-01T12:24:52;15.20;63.30
73438;DHT22;62744;56.802;23.964;2022-09-01T12:27:21;15.10;66.40
73438;DHT22;62744;56.802;23.964;2022-09-01T12:29:52;15.00;64.90
73438;DHT22;62744;56.802;23.964;2022-09-01T12:32:20;14.90;65.00
73438;DHT22;62744;56.802;23.964;2022-09-01T12:35:00;15.00;62.60
73438;DHT22;62744;56.802;23.964;2022-09-01T12:37:35;15.30;59.90
73438;DHT22;62744;56.802;23.964;2022-09-01T12:40:03;15.40;57.80
73438;DHT22;62744;56.802;23.964;2022-09-01T12:42:33;15.40;57.40
73438;DHT22;62744;56.802;23.964;2022-09-01T12:45:10;15.10;58.20
73438;DHT22;62744;56.802;23.964;2022-09-01T12:52:45;14.80;57.70
73438;DHT22;62744;56.802;23.964;2022-09-01T12:55:25;14.90;57.90
73438;DHT22;62744;56.802;23.964;2022-09-01T12:58:20;15.10;57.40
73438;DHT22;62744;56.802;23.964;2022-09-01T13:01:04;15.20;56.80
73438;DHT22;62744;56.802;23.964;2022-09-01T13:06:53;15.20;54.70
73438;DHT22;62744;56.802;23.964;2022-09-01T13:09:21;15.20;58.30
73438;DHT22;62744;56.802;23.964;2022-09-01T13:11:49;15.20;55.60
73438;DHT22;62744;56.802;23.964;2022-09-01T13:14:35;15.10;55.40
73438;DHT22;62744;56.802;23.964;2022-09-01T13:17:03;15.20;53.30
73438;DHT22;62744;56.802;23.964;2022-09-01T13:19:40;15.10;54.30
73438;DHT22;62744;56.802;23.964;2022-09-01T13:22:07;15.20;56.10
73438;DHT22;62744;56.802;23.964;2022-09-01T13:24:35;15.30;56.40
73438;DHT22;62744;56.802;23.964;2022-09-01T13:27:02;15.30;55.00
73438;DHT22;62744;56.802;23.964;2022-09-01T13:29:48;15.30;56.10
73438;DHT22;62744;56.802;23.964;2022-09-01T13:32:18;15.30;56.10
73438;DHT22;62744;56.802;23.964;2022-09-01T13:34:52;15.30;55.30
73438;DHT22;62744;56.802;23.964;2022-09-01T13:37:21;15.30;54.10
73438;DHT22;62744;56.802;23.964;2022-09-01T13:39:49;15.20;54.60
73438;DHT22;62744;56.802;23.964;2022-09-01T13:42:17;15.20;55.80
73438;DHT22;62744;56.802;23.964;2022-09-01T13:44:45;15.10;54.20
73438;DHT22;62744;56.802;23.964;2022-09-01T13:47:17;15.20;54.60
73438;DHT22;62744;56.802;23.964;2022-09-01T13:50:00;15.00;54.80
73438;DHT22;62744;56.802;23.964;2022-09-01T13:52:37;15.00;53.90
73438;DHT22;62744;56.802;23.964;2022-09-01T13:55:09;15.10;53.30
73438;DHT22;62744;56.802;23.964;2022-09-01T13:57:37;15.20;53.10
73438;DHT22;62744;56.802;23.964;2022-09-01T14:00:07;15.10;53.40
73438;DHT22;62744;56.802;23.964;2022-09-01T14:02:40;15.10;53.90
73438;DHT22;62744;56.802;23.964;2022-09-01T14:05:09;15.10;53.00
73438;DHT22;62744;56.802;23.964;2022-09-01T14:07:37;15.00;52.10
73438;DHT22;62744;56.802;23.964;2022-09-01T14:10:05;14.90;52.60
73438;DHT22;62744;56.802;23.964;2022-09-01T14:12:34;15.00;52.30
73438;DHT22;62744;56.802;23.964;2022-09-01T14:15:04;15.10;54.30
73438;DHT22;62744;56.802;23.964;2022-09-01T14:17:49;15.20;54.90
73438;DHT22;62744;56.802;23.964;2022-09-01T14:20:23;15.20;55.90
73438;DHT22;62744;56.802;23.964;2022-09-01T14:22:51;15.20;55.90
73438;DHT22;62744;56.802;23.964;2022-09-01T14:25:19;15.10;55.60
73438;DHT22;62744;56.802;23.964;2022-09-01T14:27:48;15.00;55.50
73438;DHT22;62744;56.802;23.964;2022-09-01T14:30:23;14.90;56.10
73438;DHT22;62744;56.802;23.964;2022-09-01T14:32:59;15.00;56.40
73438;DHT22;62744;56.802;23.964;2022-09-01T14:35:28;15.00;56.30
73438;DHT22;62744;56.802;23.964;2022-09-01T14:38:04;15.00;55.20
73438;DHT22;62744;56.802;23.964;2022-09-01T14:40:35;14.80;56.20
73438;DHT22;62744;56.802;23.964;2022-09-01T14:43:06;14.90;56.00
73438;DHT22;62744;56.802;23.964;2022-09-01T14:45:36;14.80;56.90
73438;DHT22;62744;56.802;23.964;2022-09-01T14:48:04;14.70;57.50
73438;DHT22;62744;56.802;23.964;2022-09-01T14:50:32;14.50;57.00
73438;DHT22;62744;56.802;23.964;2022-09-01T14:53:02;14.50;59.00
73438;DHT22;62744;56.802;23.964;2022-09-01T14:55:30;14.50;57.50
73438;DHT22;62744;56.802;23.964;2022-09-01T14:57:59;14.50;58.10
73438;DHT22;62744;56.802;23.964;2022-09-01T15:00:28;14.60;58.60
73438;DHT22;62744;56.802;23.964;2022-09-01T15:02:58;14.60;57.70
73438;DHT22;62744;56.802;23.964;2022-09-01T15:05:25;14.50;58.60
73438;DHT22;62744;56.802;23.964;2022-09-01T15:07:53;14.60;59.90
73438;DHT22;62744;56.802;23.964;2022-09-01T15:10:23;14.80;61.60
73438;DHT22;62744;56.802;23.964;2022-09-01T15:12:53;14.90;58.90
73438;DHT22;62744;56.802;23.964;2022-09-01T15:15:23;14.90;58.20
73438;DHT22;62744;56.802;23.964;2022-09-01T15:17:52;14.70;58.00
73438;DHT22;62744;56.802;23.964;2022-09-01T15:20:21;14.60;58.90
73438;DHT22;62744;56.802;23.964;2022-09-01T15:23:07;14.50;58.20
73438;DHT22;62744;56.802;23.964;2022-09-01T15:25:35;14.40;58.50
73438;DHT22;62744;56.802;23.964;2022-09-01T15:28:03;14.40;59.50
73438;DHT22;62744;56.802;23.964;2022-09-01T15:30:32;14.50;58.80
73438;DHT22;62744;56.802;23.964;2022-09-01T15:33:02;14.50;59.70
73438;DHT22;62744;56.802;23.964;2022-09-01T15:35:30;14.40;59.60
73438;DHT22;62744;56.802;23.964;2022-09-01T15:37:59;14.40;59.40
73438;DHT22;62744;56.802;23.964;2022-09-01T15:40:27;14.30;58.80
73438;DHT22;62744;56.802;23.964;2022-09-01T15:42:56;14.20;59.80
73438;DHT22;62744;56.802;23.964;2022-09-01T15:45:25;14.20;59.30
73438;DHT22;62744;56.802;23.964;2022-09-01T15:47:53;14.20;59.80
73438;DHT22;62744;56.802;23.964;2022-09-01T15:50:23;14.20;60.00
73438;DHT22;62744;56.802;23.964;2022-09-01T15:52:54;14.20;59.90
73438;DHT22;62744;56.802;23.964;2022-09-01T15:55:25;14.10;60.50
73438;DHT22;62744;56.802;23.964;2022-09-01T15:57:56;14.10;60.80
73438;DHT22;62744;56.802;23.964;2022-09-01T16:00:26;14.00;60.70
73438;DHT22;62744;56.802;23.964;2022-09-01T16:02:55;14.00;60.90
73438;DHT22;62744;56.802;23.964;2022-09-01T16:05:24;14.00;61.80
73438;DHT22;62744;56.802;23.964;2022-09-01T16:07:53;14.00;62.20
73438;DHT22;62744;56.802;23.964;2022-09-01T16:10:28;13.90;61.80
73438;DHT22;62744;56.802;23.964;2022-09-01T16:13:01;13.90;62.00
73438;DHT22;62744;56.802;23.964;2022-09-01T16:15:28;13.80;61.50
73438;DHT22;62744;56.802;23.964;2022-09-01T16:18:18;13.70;62.20
73438;DHT22;62744;56.802;23.964;2022-09-01T16:21:13;13.70;62.20
73438;DHT22;62744;56.802;23.964;2022-09-01T16:23:46;13.70;62.50
73438;DHT22;62744;56.802;23.964;2022-09-01T16:26:17;13.70;62.70
73438;DHT22;62744;56.802;23.964;2022-09-01T16:28:50;13.60;63.40
73438;DHT22;62744;56.802;23.964;2022-09-01T16:31:25;13.60;63.50
73438;DHT22;62744;56.802;23.964;2022-09-01T16:33:55;13.50;63.10
73438;DHT22;62744;56.802;23.964;2022-09-01T16:39:54;13.40;63.50
73438;DHT22;62744;56.802;23.964;2022-09-01T16:42:39;13.50;64.40
73438;DHT22;62744;56.802;23.964;2022-09-01T16:50:35;13.20;67.10
73438;DHT22;62744;56.802;23.964;2022-09-01T16:56:35;12.80;71.30
73438;DHT22;62744;56.802;23.964;2022-09-01T17:01:55;12.40;76.10
73438;DHT22;62744;56.802;23.964;2022-09-01T17:04:48;12.20;76.50
73438;DHT22;62744;56.802;23.964;2022-09-01T17:07:27;12.10;76.90
73438;DHT22;62744;56.802;23.964;2022-09-01T17:13:14;11.80;78.10
73438;DHT22;62744;56.802;23.964;2022-09-01T17:15:47;11.70;77.50
73438;DHT22;62744;56.802;23.964;2022-09-01T17:18:24;11.70;78.60